createdAt,value
2023-02-13T00:00:34.148Z,86.60
2023-02-13T00:03:01.080Z,86.60
2023-02-13T00:05:27.829Z,86.50
2023-02-13T00:07:54.561Z,86.50
2023-02-13T00:10:21.321Z,86.50
2023-02-13T00:12:48.118Z,86.60
2023-02-13T00:15:14.932Z,86.60
2023-02-13T00:17:41.654Z,86.50
2023-02-13T00:20:10.276Z,86.60
2023-02-13T00:22:38.150Z,86.50
2023-02-13T00:25:07.154Z,86.50
2023-02-13T00:27:34.163Z,86.40
2023-02-13T00:30:02.328Z,86.50
2023-02-13T00:32:29.201Z,86.50
2023-02-13T00:34:56.487Z,86.40
2023-02-13T00:37:23.679Z,86.40
2023-02-13T00:39:52.251Z,86.30
2023-02-13T00:42:20.378Z,86.20
2023-02-13T00:44:47.075Z,86.20
2023-02-13T00:47:14.764Z,86.20
2023-02-13T00:49:41.804Z,86.20
2023-02-13T00:52:12.395Z,86.10
2023-02-13T00:54:39.360Z,86.10
2023-02-13T00:57:06.396Z,86.00
2023-02-13T00:59:33.191Z,86.10
2023-02-13T01:02:00.508Z,86.10
2023-02-13T01:04:27.380Z,86.00
2023-02-13T01:06:57.558Z,86.20
2023-02-13T01:09:24.581Z,86.20
2023-02-13T01:11:51.350Z,86.10
2023-02-13T01:14:18.375Z,86.10
2023-02-13T01:16:47.293Z,86.20
2023-02-13T01:19:14.062Z,86.30
2023-02-13T01:21:40.771Z,86.30
2023-02-13T01:24:07.763Z,86.30
2023-02-13T01:26:36.079Z,86.20
2023-02-13T01:29:02.888Z,86.30
2023-02-13T01:31:29.619Z,86.30
2023-02-13T01:33:58.138Z,86.20
2023-02-13T01:36:26.118Z,86.00
2023-02-13T01:38:58.575Z,86.00
2023-02-13T01:41:27.532Z,86.10
2023-02-13T01:43:54.260Z,86.10
2023-02-13T01:46:30.878Z,86.00
2023-02-13T01:49:18.658Z,86.00
2023-02-13T01:51:47.574Z,85.90
2023-02-13T01:54:19.495Z,85.90
2023-02-13T01:56:57.229Z,85.90
2023-02-13T01:59:36.854Z,85.90
2023-02-13T02:02:03.858Z,85.80
2023-02-13T02:04:33.854Z,85.80
2023-02-13T02:07:09.937Z,85.90
2023-02-13T02:09:39.893Z,86.00
2023-02-13T02:12:24.995Z,85.90
2023-02-13T02:14:54.509Z,85.90
2023-02-13T02:17:24.433Z,85.90
2023-02-13T02:20:15.003Z,86.00
2023-02-13T02:23:08.340Z,85.90
2023-02-13T02:25:46.995Z,86.00
2023-02-13T02:28:23.213Z,86.00
2023-02-13T02:31:36.857Z,86.00
2023-02-13T02:34:37.332Z,85.90
2023-02-13T02:37:18.835Z,85.90
2023-02-13T02:40:11.902Z,85.90
2023-02-13T02:42:56.739Z,86.00
2023-02-13T02:45:30.439Z,86.00
2023-02-13T02:48:38.376Z,86.00
2023-02-13T02:51:21.465Z,86.10
2023-02-13T02:54:39.952Z,85.90
2023-02-13T02:57:18.378Z,86.00
2023-02-13T03:00:12.927Z,85.80
2023-02-13T03:02:58.123Z,85.80
2023-02-13T03:05:48.521Z,86.00
2023-02-13T03:08:36.418Z,86.00
2023-02-13T03:11:21.976Z,86.00
2023-02-13T03:13:49.897Z,85.90
2023-02-13T03:16:40.338Z,85.90
2023-02-13T03:19:35.413Z,85.90
2023-02-13T03:22:26.269Z,86.00
2023-02-13T03:25:04.572Z,85.90
2023-02-13T03:28:14.175Z,86.00
2023-02-13T03:30:58.799Z,86.00
2023-02-13T03:33:40.279Z,86.00
2023-02-13T03:37:06.711Z,86.00
2023-02-13T03:39:51.932Z,85.90
2023-02-13T03:42:56.185Z,85.90
2023-02-13T03:45:49.699Z,85.90
2023-02-13T03:48:42.134Z,85.70
2023-02-13T03:51:12.193Z,85.70
2023-02-13T03:53:42.044Z,85.70
2023-02-13T03:56:29.992Z,85.50
2023-02-13T03:59:13.939Z,85.50
2023-02-13T04:01:43.883Z,85.50
2023-02-13T04:04:30.285Z,85.60
2023-02-13T04:07:09.551Z,85.50
2023-02-13T04:09:40.739Z,85.30
2023-02-13T04:12:25.984Z,85.40
2023-02-13T04:15:07.294Z,85.20
2023-02-13T04:17:38.875Z,85.10
2023-02-13T04:20:07.061Z,85.10
2023-02-13T04:22:33.938Z,85.00
2023-02-13T04:25:01.156Z,85.00
2023-02-13T04:27:28.460Z,85.00
2023-02-13T04:29:55.221Z,85.00
2023-02-13T04:32:21.957Z,85.10
2023-02-13T04:34:48.695Z,85.10
2023-02-13T04:37:15.453Z,85.10
2023-02-13T04:39:42.258Z,85.10
2023-02-13T04:42:09.020Z,85.10
2023-02-13T04:44:35.694Z,85.00
2023-02-13T04:47:02.471Z,85.00
2023-02-13T04:49:29.257Z,84.70
2023-02-13T04:51:55.954Z,84.60
2023-02-13T04:54:22.653Z,84.70
2023-02-13T04:56:49.383Z,84.60
2023-02-13T04:59:16.071Z,84.60
2023-02-13T05:01:42.988Z,84.80
2023-02-13T05:04:11.228Z,84.80
2023-02-13T05:06:39.157Z,84.80
2023-02-13T05:09:05.908Z,84.80
2023-02-13T05:11:32.644Z,84.90
2023-02-13T05:13:59.376Z,84.80
2023-02-13T05:16:26.130Z,84.80
2023-02-13T05:18:54.932Z,84.70
2023-02-13T05:21:40.526Z,84.80
2023-02-13T05:24:07.376Z,84.80
2023-02-13T05:26:34.116Z,84.70
2023-02-13T05:29:19.220Z,84.70
2023-02-13T05:31:58.349Z,84.80
2023-02-13T05:34:26.855Z,84.70
2023-02-13T05:36:54.273Z,84.80
2023-02-13T05:39:21.417Z,84.80
2023-02-13T05:41:49.315Z,84.80
2023-02-13T05:44:16.879Z,84.90
2023-02-13T05:46:44.881Z,84.80
2023-02-13T05:49:13.775Z,84.90
2023-02-13T05:51:41.096Z,84.90
2023-02-13T05:54:08.384Z,84.90
2023-02-13T05:56:35.112Z,84.90
2023-02-13T05:59:01.852Z,84.80
2023-02-13T06:01:28.654Z,84.80
2023-02-13T06:03:57.752Z,84.80
2023-02-13T06:06:25.501Z,84.70
2023-02-13T06:08:52.668Z,84.60
2023-02-13T06:11:19.611Z,84.60
2023-02-13T06:13:46.390Z,84.60
2023-02-13T06:16:13.437Z,84.50
2023-02-13T06:18:40.437Z,84.60
2023-02-13T06:21:08.415Z,84.60
2023-02-13T06:23:35.278Z,84.70
2023-02-13T06:26:06.884Z,84.70
2023-02-13T06:28:34.469Z,84.60
2023-02-13T06:31:01.807Z,84.50
2023-02-13T06:33:28.897Z,84.50
2023-02-13T06:35:55.662Z,84.50
2023-02-13T06:38:22.544Z,84.40
2023-02-13T06:40:50.041Z,84.30
2023-02-13T06:43:17.882Z,84.00
2023-02-13T06:45:46.920Z,83.80
2023-02-13T06:48:14.452Z,83.70
2023-02-13T06:50:41.377Z,83.80
2023-02-13T06:53:08.561Z,83.30
2023-02-13T06:55:35.957Z,83.40
2023-02-13T06:58:02.790Z,83.30
2023-02-13T07:00:29.714Z,83.20
2023-02-13T07:03:05.468Z,82.90
2023-02-13T07:05:33.156Z,82.60
2023-02-13T07:07:59.884Z,82.90
2023-02-13T07:10:26.749Z,82.90
2023-02-13T07:13:05.027Z,83.00
2023-02-13T07:15:34.114Z,83.00
2023-02-13T07:18:01.150Z,83.00
2023-02-13T07:20:28.041Z,82.90
2023-02-13T07:23:02.186Z,82.80
2023-02-13T07:25:29.652Z,82.90
2023-02-13T07:28:02.353Z,82.70
2023-02-13T07:30:30.492Z,82.50
2023-02-13T07:33:01.356Z,82.20
2023-02-13T07:35:28.207Z,82.10
2023-02-13T07:37:55.311Z,82.10
2023-02-13T07:40:22.340Z,82.30
2023-02-13T07:42:49.077Z,82.40
2023-02-13T07:45:16.121Z,82.70
2023-02-13T07:47:43.380Z,82.70
2023-02-13T07:50:10.773Z,82.60
2023-02-13T07:52:38.145Z,82.50
2023-02-13T07:55:05.872Z,82.60
2023-02-13T07:57:33.804Z,82.40
2023-02-13T08:00:00.594Z,82.40
2023-02-13T08:02:27.454Z,82.20
2023-02-13T08:04:54.149Z,82.70
2023-02-13T08:07:20.917Z,82.80
2023-02-13T08:10:06.222Z,82.70
2023-02-13T08:12:35.894Z,82.90
2023-02-13T08:15:03.961Z,82.80
2023-02-13T08:17:30.854Z,82.80
2023-02-13T08:19:57.912Z,83.00
2023-02-13T08:22:24.934Z,83.10
2023-02-13T08:24:51.758Z,83.10
2023-02-13T08:27:18.495Z,83.30
2023-02-13T08:29:45.213Z,83.40
2023-02-13T08:32:12.515Z,83.10
2023-02-13T08:34:39.358Z,83.40
2023-02-13T08:37:06.054Z,83.50
2023-02-13T08:39:32.789Z,83.10
2023-02-13T08:41:59.504Z,83.10
2023-02-13T08:44:26.371Z,82.80
2023-02-13T08:46:53.198Z,82.50
2023-02-13T08:49:20.052Z,81.80
2023-02-13T08:51:46.801Z,82.00
2023-02-13T08:54:13.509Z,81.90
2023-02-13T08:56:42.021Z,81.50
2023-02-13T08:59:08.982Z,81.50
2023-02-13T09:01:35.817Z,81.50
2023-02-13T09:04:02.569Z,81.60
2023-02-13T09:06:29.391Z,81.00
2023-02-13T09:08:56.407Z,81.50
2023-02-13T09:11:23.570Z,81.80
2023-02-13T09:13:53.489Z,81.50
2023-02-13T09:16:21.310Z,81.20
2023-02-13T09:18:49.287Z,80.70
2023-02-13T09:21:17.167Z,81.10
2023-02-13T09:23:44.355Z,80.60
2023-02-13T09:26:13.410Z,80.60
2023-02-13T09:28:41.205Z,80.50
2023-02-13T09:31:09.787Z,80.10
2023-02-13T09:33:37.405Z,79.80
2023-02-13T09:36:09.002Z,79.50
2023-02-13T09:38:35.878Z,78.90
2023-02-13T09:41:12.410Z,79.00
2023-02-13T09:43:54.006Z,78.90
2023-02-13T09:46:39.481Z,78.70
2023-02-13T09:49:15.811Z,78.30
2023-02-13T09:51:45.399Z,78.30
2023-02-13T09:54:19.052Z,77.80
2023-02-13T09:57:07.309Z,78.20
2023-02-13T09:59:49.207Z,77.80
2023-02-13T10:02:42.748Z,77.50
2023-02-13T10:05:24.417Z,77.60
2023-02-13T10:08:27.731Z,77.30
2023-02-13T10:11:52.027Z,76.80
2023-02-13T10:14:32.329Z,77.00
2023-02-13T10:17:07.369Z,76.60
2023-02-13T10:19:40.340Z,76.30
2023-02-13T10:22:21.572Z,76.60
2023-02-13T10:24:53.413Z,76.30
2023-02-13T10:27:25.552Z,76.50
2023-02-13T10:30:07.068Z,76.10
2023-02-13T10:32:52.197Z,76.30
2023-02-13T10:35:29.684Z,76.00
2023-02-13T10:37:59.420Z,75.70
2023-02-13T10:40:35.242Z,76.00
2023-02-13T10:43:09.783Z,75.50
2023-02-13T10:46:00.119Z,75.50
2023-02-13T10:49:15.270Z,75.10
2023-02-13T10:52:05.112Z,75.20
2023-02-13T10:54:51.458Z,75.00
2023-02-13T10:58:03.513Z,75.40
2023-02-13T11:00:43.883Z,75.80
2023-02-13T11:03:19.007Z,75.40
2023-02-13T11:05:45.763Z,75.60
2023-02-13T11:08:33.452Z,75.20
2023-02-13T11:11:00.729Z,75.40
2023-02-13T11:13:30.116Z,75.40
2023-02-13T11:16:10.149Z,75.20
2023-02-13T11:18:40.589Z,75.20
2023-02-13T11:21:13.921Z,75.40
2023-02-13T11:23:49.454Z,75.00
2023-02-13T11:26:34.026Z,74.70
2023-02-13T11:29:05.912Z,75.00
2023-02-13T11:31:35.310Z,74.50
2023-02-13T11:34:25.680Z,74.50
2023-02-13T11:36:55.292Z,74.00
2023-02-13T11:39:26.345Z,73.40
2023-02-13T11:41:53.120Z,73.40
2023-02-13T11:44:29.890Z,73.20
2023-02-13T11:46:59.668Z,72.70
2023-02-13T11:49:29.462Z,73.00
2023-02-13T11:51:58.505Z,73.00
2023-02-13T11:54:39.077Z,72.60
2023-02-13T11:57:33.296Z,72.80
2023-02-13T12:00:02.057Z,72.90
2023-02-13T12:02:52.109Z,73.10
2023-02-13T12:05:24.323Z,72.50
2023-02-13T12:07:51.384Z,72.00
2023-02-13T12:10:29.679Z,72.10
2023-02-13T12:13:36.838Z,71.80
2023-02-13T12:16:17.667Z,71.60
2023-02-13T12:18:53.797Z,72.00
2023-02-13T12:21:29.338Z,72.30
2023-02-13T12:24:20.802Z,73.10
2023-02-13T12:27:26.422Z,72.90
2023-02-13T12:30:20.928Z,73.00
2023-02-13T12:33:10.189Z,72.70
2023-02-13T12:36:12.370Z,73.10
2023-02-13T12:38:58.463Z,72.70
2023-02-13T12:42:12.263Z,74.00
2023-02-13T12:44:50.152Z,72.70
2023-02-13T12:47:22.986Z,71.70
2023-02-13T12:50:03.958Z,72.00
2023-02-13T12:52:36.831Z,72.80
2023-02-13T12:55:28.844Z,72.20
2023-02-13T12:58:07.672Z,71.50
2023-02-13T13:01:05.129Z,70.40
2023-02-13T13:03:31.814Z,70.50
2023-02-13T13:06:39.499Z,71.00
2023-02-13T13:09:33.260Z,71.00
2023-02-13T13:12:42.245Z,71.50
2023-02-13T13:15:32.493Z,71.20
2023-02-13T13:18:03.984Z,71.00
2023-02-13T13:20:47.097Z,70.50
2023-02-13T13:23:22.083Z,70.50
2023-02-13T13:25:57.813Z,70.50
2023-02-13T13:28:29.634Z,70.70
2023-02-13T13:30:58.391Z,70.70
2023-02-13T13:33:26.842Z,70.90
2023-02-13T13:36:01.642Z,70.40
2023-02-13T13:38:37.310Z,69.90
2023-02-13T13:41:13.150Z,69.70
2023-02-13T13:43:47.602Z,69.60
2023-02-13T13:46:17.597Z,69.90
2023-02-13T13:49:16.213Z,70.00
2023-02-13T13:51:43.145Z,69.90
2023-02-13T13:54:09.942Z,70.10
2023-02-13T13:57:05.549Z,70.00
2023-02-13T13:59:38.374Z,70.40
2023-02-13T14:02:17.562Z,70.50
2023-02-13T14:05:17.197Z,70.30
2023-02-13T14:07:44.784Z,70.70
2023-02-13T14:10:20.547Z,70.70
2023-02-13T14:12:56.674Z,70.80
2023-02-13T14:15:42.512Z,70.30
2023-02-13T14:18:15.459Z,70.50
2023-02-13T14:20:51.063Z,70.30
2023-02-13T14:23:20.870Z,70.50
2023-02-13T14:25:47.891Z,70.60
2023-02-13T14:28:26.258Z,70.40
2023-02-13T14:31:06.873Z,70.10
2023-02-13T14:33:34.345Z,70.10
2023-02-13T14:36:22.097Z,70.10
2023-02-13T14:39:21.132Z,70.50
2023-02-13T14:41:56.525Z,71.10
2023-02-13T14:44:29.305Z,71.40
2023-02-13T14:46:57.000Z,71.90
2023-02-13T14:49:28.385Z,72.10
2023-02-13T14:52:04.846Z,72.20
2023-02-13T14:54:38.239Z,72.60
2023-02-13T14:57:38.533Z,72.50
2023-02-13T15:00:23.239Z,72.70
2023-02-13T15:02:55.891Z,72.70
2023-02-13T15:05:30.689Z,73.00
2023-02-13T15:08:04.093Z,73.30
2023-02-13T15:10:55.530Z,73.90
2023-02-13T15:13:25.265Z,73.70
2023-02-13T15:16:04.336Z,73.90
2023-02-13T15:18:42.439Z,74.10
2023-02-13T15:21:16.444Z,74.40
2023-02-13T15:23:44.248Z,74.30
2023-02-13T15:26:26.340Z,74.20
2023-02-13T15:29:35.207Z,74.20
2023-02-13T15:32:20.409Z,73.60
2023-02-13T15:34:48.692Z,73.30
2023-02-13T15:37:23.820Z,73.60
2023-02-13T15:39:50.706Z,73.80
2023-02-13T15:42:17.599Z,74.30
2023-02-13T15:44:48.330Z,74.40
2023-02-13T15:47:29.396Z,74.40
2023-02-13T15:49:56.675Z,74.50
2023-02-13T15:52:36.463Z,74.90
2023-02-13T15:55:04.042Z,74.90
2023-02-13T15:57:31.633Z,74.90
2023-02-13T16:00:01.427Z,75.00
2023-02-13T16:02:47.782Z,74.70
2023-02-13T16:05:20.020Z,75.00
2023-02-13T16:07:57.343Z,75.00
2023-02-13T16:10:34.464Z,74.90
2023-02-13T16:13:05.644Z,75.30
2023-02-13T16:15:35.677Z,75.30
2023-02-13T16:18:03.992Z,76.10
2023-02-13T16:20:34.458Z,76.30
2023-02-13T16:23:13.491Z,76.10
2023-02-13T16:25:41.314Z,76.10
2023-02-13T16:28:19.852Z,76.20
2023-02-13T16:30:52.759Z,76.20
2023-02-13T16:33:24.354Z,76.10
2023-02-13T16:35:53.921Z,76.50
2023-02-13T16:38:37.417Z,76.90
2023-02-13T16:41:05.980Z,76.90
2023-02-13T16:43:44.162Z,76.90
2023-02-13T16:46:19.995Z,76.90
2023-02-13T16:48:48.478Z,77.20
2023-02-13T16:51:16.650Z,77.10
2023-02-13T16:53:43.554Z,77.50
2023-02-13T16:56:11.736Z,78.00
2023-02-13T16:58:38.437Z,78.40
2023-02-13T17:01:06.024Z,78.90
2023-02-13T17:03:33.101Z,79.10
2023-02-13T17:06:03.553Z,79.20
2023-02-13T17:08:31.783Z,79.90
2023-02-13T17:11:08.408Z,80.10
2023-02-13T17:13:35.247Z,80.40
2023-02-13T17:16:02.089Z,80.70
2023-02-13T17:18:28.867Z,80.70
2023-02-13T17:20:55.777Z,81.20
2023-02-13T17:23:25.879Z,81.40
2023-02-13T17:25:53.906Z,81.50
2023-02-13T17:28:26.749Z,81.70
2023-02-13T17:30:57.154Z,81.60
2023-02-13T17:33:32.143Z,81.70
2023-02-13T17:35:58.900Z,82.20
2023-02-13T17:38:25.699Z,82.30
2023-02-13T17:40:52.583Z,82.00
2023-02-13T17:43:20.767Z,82.00
2023-02-13T17:45:49.587Z,82.00
2023-02-13T17:48:16.954Z,81.90
2023-02-13T17:50:43.884Z,82.00
2023-02-13T17:53:25.994Z,82.30
2023-02-13T17:55:52.930Z,82.30
2023-02-13T17:58:19.763Z,82.60
2023-02-13T18:00:46.633Z,82.60
2023-02-13T18:03:13.708Z,82.90
2023-02-13T18:05:41.354Z,83.20
2023-02-13T18:08:08.419Z,83.30
2023-02-13T18:10:37.322Z,83.30
2023-02-13T18:13:04.544Z,83.30
2023-02-13T18:15:33.756Z,83.70
2023-02-13T18:18:00.817Z,83.70
2023-02-13T18:20:27.627Z,83.80
2023-02-13T18:22:54.436Z,84.00
2023-02-13T18:25:21.885Z,84.10
2023-02-13T18:27:48.659Z,84.20
2023-02-13T18:30:18.587Z,84.20
2023-02-13T18:32:46.193Z,84.30
2023-02-13T18:35:12.967Z,84.30
2023-02-13T18:37:39.775Z,84.30
2023-02-13T18:40:07.890Z,84.30
2023-02-13T18:42:35.972Z,84.20
2023-02-13T18:45:03.353Z,83.90
2023-02-13T18:47:30.253Z,83.50
2023-02-13T18:49:57.055Z,83.20
2023-02-13T18:52:23.875Z,83.10
2023-02-13T18:54:51.505Z,83.10
2023-02-13T18:57:18.232Z,83.00
2023-02-13T18:59:44.993Z,83.20
2023-02-13T19:02:11.766Z,83.30
2023-02-13T19:04:39.090Z,83.20
2023-02-13T19:07:06.202Z,83.40
2023-02-13T19:09:33.038Z,83.80
2023-02-13T19:11:59.777Z,83.90
2023-02-13T19:14:26.912Z,84.10
2023-02-13T19:16:53.656Z,84.30
2023-02-13T19:19:20.356Z,84.20
2023-02-13T19:21:47.067Z,84.20
2023-02-13T19:24:15.375Z,84.20
2023-02-13T19:26:42.399Z,84.10
2023-02-13T19:29:09.204Z,84.00
2023-02-13T19:31:36.477Z,84.10
2023-02-13T19:34:05.709Z,84.50
2023-02-13T19:36:32.737Z,84.40
2023-02-13T19:39:05.002Z,84.60
2023-02-13T19:41:32.834Z,84.80
2023-02-13T19:44:00.438Z,84.90
2023-02-13T19:46:29.700Z,84.80
2023-02-13T19:48:57.545Z,84.90
2023-02-13T19:51:27.742Z,84.80
2023-02-13T19:54:03.109Z,84.90
2023-02-13T19:56:31.248Z,85.10
2023-02-13T19:58:58.393Z,84.90
2023-02-13T20:01:27.164Z,85.10
2023-02-13T20:03:54.255Z,85.20
2023-02-13T20:06:22.595Z,85.20
2023-02-13T20:08:50.249Z,85.20
2023-02-13T20:11:19.072Z,85.20
2023-02-13T20:13:45.807Z,85.10
2023-02-13T20:16:15.095Z,85.00
2023-02-13T20:18:42.636Z,84.90
2023-02-13T20:21:14.506Z,84.40
2023-02-13T20:23:42.429Z,84.10
2023-02-13T20:26:13.972Z,84.20
2023-02-13T20:28:42.210Z,84.50
2023-02-13T20:31:14.224Z,84.70
2023-02-13T20:33:41.871Z,84.70
2023-02-13T20:36:23.427Z,84.70
2023-02-13T20:38:53.123Z,84.90
2023-02-13T20:41:22.686Z,85.00
2023-02-13T20:43:50.157Z,85.30
2023-02-13T20:46:18.329Z,85.30
2023-02-13T20:48:47.080Z,85.70
2023-02-13T20:51:15.875Z,85.40
2023-02-13T20:53:43.311Z,85.20
2023-02-13T20:56:21.125Z,85.30
2023-02-13T20:58:49.876Z,85.10
2023-02-13T21:01:28.788Z,85.10
2023-02-13T21:03:56.477Z,85.10
2023-02-13T21:06:26.236Z,85.20
2023-02-13T21:08:53.557Z,85.30
2023-02-13T21:11:21.073Z,85.10
2023-02-13T21:13:48.639Z,85.00
2023-02-13T21:16:18.531Z,85.00
2023-02-13T21:18:48.316Z,85.30
2023-02-13T21:21:15.621Z,85.50
2023-02-13T21:23:42.366Z,85.60
2023-02-13T21:26:12.707Z,85.60
2023-02-13T21:28:40.634Z,85.70
2023-02-13T21:31:09.528Z,85.60
2023-02-13T21:33:36.476Z,85.60
2023-02-13T21:36:05.095Z,85.60
2023-02-13T21:38:31.938Z,85.60
2023-02-13T21:41:13.693Z,85.70
2023-02-13T21:43:42.105Z,85.90
2023-02-13T21:46:17.243Z,86.10
2023-02-13T21:48:44.658Z,86.10
2023-02-13T21:51:15.040Z,86.30
2023-02-13T21:53:42.514Z,86.50
2023-02-13T21:56:14.222Z,86.60
2023-02-13T21:58:42.576Z,86.50
2023-02-13T22:01:25.971Z,86.60
2023-02-13T22:03:58.406Z,86.50
2023-02-13T22:06:27.186Z,86.40
2023-02-13T22:09:02.741Z,86.50
2023-02-13T22:11:30.477Z,86.20
2023-02-13T22:14:01.609Z,86.20
2023-02-13T22:16:33.252Z,86.10
2023-02-13T22:19:00.703Z,86.10
2023-02-13T22:21:30.345Z,86.20
2023-02-13T22:23:57.351Z,86.30
2023-02-13T22:26:28.222Z,86.20
2023-02-13T22:28:59.050Z,86.10
2023-02-13T22:31:26.223Z,85.80
2023-02-13T22:34:09.387Z,85.50
2023-02-13T22:36:40.988Z,85.30
2023-02-13T22:39:09.917Z,85.20
2023-02-13T22:41:37.110Z,85.20
2023-02-13T22:44:03.988Z,85.40
2023-02-13T22:46:33.221Z,85.40
2023-02-13T22:49:00.793Z,85.50
2023-02-13T22:51:33.157Z,85.70
2023-02-13T22:54:00.818Z,85.80
2023-02-13T22:56:29.383Z,86.30
2023-02-13T22:58:56.443Z,86.80
2023-02-13T23:01:24.777Z,87.00
2023-02-13T23:03:51.647Z,87.20
2023-02-13T23:06:19.438Z,87.30
2023-02-13T23:08:49.037Z,87.40
2023-02-13T23:11:36.116Z,87.10
2023-02-13T23:14:04.156Z,86.90
2023-02-13T23:16:54.185Z,86.90
2023-02-13T23:19:21.471Z,86.70
2023-02-13T23:21:48.468Z,86.70
2023-02-13T23:24:15.651Z,86.60
2023-02-13T23:26:42.574Z,86.60
2023-02-13T23:29:10.192Z,86.70
2023-02-13T23:31:37.310Z,86.80
2023-02-13T23:34:04.516Z,87.00
2023-02-13T23:36:31.318Z,87.10
2023-02-13T23:38:58.030Z,87.20
2023-02-13T23:41:24.786Z,87.50
2023-02-13T23:43:51.547Z,87.70
2023-02-13T23:46:18.306Z,87.80
2023-02-13T23:48:46.028Z,87.90
2023-02-13T23:51:13.002Z,87.90
2023-02-13T23:53:39.792Z,88.00
2023-02-13T23:56:07.121Z,88.10
2023-02-13T23:58:34.498Z,88.20
